KNMI Weerbulletins

Hier vind u de KMNI verwachtingen en de waarnemingen

Bron: KNMI website
Laatste update op 05-07-2020 om 15:10
ZCZC
FBNL50 EHDB 051208 COR
WEERBULLETIN VOOR DE LUCHTVAART - COR
.
GELDIG 051200/051800 UTC
.
SITUATIE: EEN STEVIGE ZUIDWESTELIJKE STROMING VOERT MARITIEM
TROPISCHE LUCHT AAN. EEN KOUFRONT (OP HOOGTE), OM 12 UTC T.H.V. DE
LIJN EHTW-EHWO, TREKT ONO-WAARTS EN VERLAAT ROND 16 UTC HET UITERSTE
ZUIDOOSTEN. NA PASSAGE WORDT MINDER VOCHTIGE LUCHT AANGEVOERD EN IS
DE OPBOUW LOKAAL ONSTABIEL TOT 8000 VT. EEN NO-ZW GEORIENTEERDE TROG,
OM 12 UTC BOVEN DE WADDENEILANDEN, TREKT EVENEENS ONO-WAARTS EN WORDT
OM 18 UTC T.H.V. DE LIJN HOOGEVEEN-ALKMAAR VERWACHT.
.
SIGNIFICANT WEER: TEN ZUIDOOSTEN VAN DE TROG IN DE KUSTGEBIEDEN
MATIGE TURBULENTIE, LOKAAL OOK VERDER LANDINWAARTS.
TEN NOORDWESTEN VAN HET FRONT KANS OP EEN ENKELE GEISOLEERDE LICHTE
REGENBUI. NABIJ EN TEN ZUIDOOSTEN VAN HET FRONT VAN TIJD TOT TIJD
LICHTE, MOGELIJK LOKAAL MATIGE MOTREGEN.
.
.
WIND: ZUIDWEST 14-19 KN, IN DE KUSTGEBIEDEN 20-26 KN, AAN ZEE EN
BOVEN HET IJSSELMEER AANVANKELIJK ENKELE KN MEER. TEVENS UITSCHIETERS
TOT 10 KN BOVEN DE GEMIDDELDE WIND.
NA TROGPASSAGE ENIGE TIJD WEST EN AFNEMEND NAAR 10-15 KN, AAN ZEE EN
BOVEN HET IJSSELMEER NAAR 15-20 KN.
.
BEWOLKING: SCT CU/SC 1500-3000 VT, IN DE KUSTGEBIEDEN AANVANKELIJK
LOKAAL 1000-1500 VT EN SCT, LOKAAL BKN SC ROND 4500 VT, TOPPEN 6000
VT. IN EEN BUI FEW TCU 2000 VT, TOPPEN TOT 8000 VT. +++ NABIJ EN TEN
ZUIDOOSTEN VAN HET FRONT BKN/OVC SC 1500-2000 VT, LOKAAL 1000-1500 VT
EN ZEER LOKAAL BKN ST 500-1000 VT. TOPPEN 5000-7000 VT. +++
.
ZICHT: MEER DAN 10 KM. IN EEN BUI MOGELIJK 5-8 KM. IN (MOT)REGEN 3-8
KM.
.
NULGRADEN NIVEAU: BOVEN FL100. TEN NOORDWESTEN VAN DE TROG ROND
FL090.
.
HOOGTEWINDEN EN TEMPERATUREN:
       12 UTC:       18 UTC:
0500VT 240/25-35 +18 250/15-25 +18
1500VT 240/30-40 +15 250/20-30 +15
3000VT 240/35-40 +12 250/25-35 +11
FL 050 250/40    +08 250/35-40 +06
FL 100 260/55    +06 260/50-55 +02
OM 12 UTC LAAGSTE WINDSNELHEID BOVEN HET ZO, HOOGSTE BOVEN HET NW. OM
18 UTC HOOGSTE BOVEN HET ZW, LAAGSTE BOVEN HET NOORDEN.
.
THERMIEK: MATIG EN MOGELIJK VERSTOORD DOOR EEN BUI. IN HET GEBIED
TUSSEN HET FRONT EN DE TROG VERWAAID, IN DE KUSTGEBIEDEN ZEER
VERWAAID. TEN ZUIDOOSTEN VAN HET FRONT NIET OF NAUWELIJKS ONTWIKKELD.
.
.
MAX. TEMPERATUUR: ROND 20 GRADEN CELSIUS.
.
VOORUITZICHTEN VOOR DE PERIODE VAN 051800/060000: GENOEMDE TROG NEEMT
IN BETEKENIS AF. TEGEN HET EINDE VAN DE PERIODE IN HET NOORDEN
TOENEMENDE KANS OP ENKELE GEISOLEERDE LICHTE TOT MATIGE REGENBUIEN EN
IN NOORDELIJK KUSTGEBIED KANS OP MATIGE TURBULENTIE.
.
DAGLICHTPERIODE: 03.13 TOT 20.16 UTC.=
NNNN
Bron: KNMI website
Laatste update op 05-07-2020 om 15:10
ZCZC
FC050900 EHGR     GILZE-RIJEN/GILZE-RIJEN   NLD   14 m.
TAF EHGR 050900Z NIL=
ZCZC
FC050900 EHKD     DE KOOY/DE KOOY   NLD   1 m.
TAF EHKD 050840Z 0509/0521 23025G35KT 9999 FEW008 BKN010
    BKN040
    BECMG 0509/0510 FEW016 SCT040
    TEMPO 0509/0512 24027G40KT
    BECMG 0512/0515 25015G25KT
    BECMG 0515/0518 26008KT=
ZCZC
FC050900 EHLW     LEEUWARDEN/LEEUWARDEN   NLD   1 m.
TAF EHLW 050846Z 0509/0521 24020G30KT 9999 SCT018 BKN040
    TEMPO 0509/0510 SCT012 BKN015
    TEMPO 0509/0514 25022G38KT
    BECMG 0514/0517 27012G22KT
    BECMG 0517/0520 24008KT=
ZCZC
FC050900 EHVK RRA VOLKEL/VOLKEL   NLD   21 m.
TAF EHVK 050854Z 0509/0521 23017G27KT 9999 BKN015 BKN020
    TEMPO 0509/0513 FEW008 SCT012 OVC015
    PROB30 TEMPO 0509/0513 3000 -RADZ SCT007 BKN010 OVC012
    TEMPO 0509/0517 24018G32KT
    BECMG 0513/0515 SCT020 SCT040
    BECMG 0518/0521 24013G23KT=
ZCZC
FC050900 EHWO     WOENSDRECHT/WOENSDRECHT   NLD   19 m.
TAF EHWO 050900Z NIL=
ZCZC
FT051100 EHAM     AMSTERDAM/SCHIPHOL   NLD   -3 m.
TAF EHAM 051057Z 0512/0618 24024G36KT 9999 SCT018
    BECMG 0515/0518 23018G28KT SCT025
    BECMG 0521/0524 27016G26KT
    PROB30 TEMPO 0602/0615 6000 -SHRA SCT020CB BKN030
    BECMG 0609/0612 30015G25KT
    BECMG 0615/0618 31012KT=
ZCZC
FT051100 EHBK     MAASTRICHT/MAASTRICHT-AACHEN   NLD   114 m.
TAF EHBK 051102Z 0512/0618 24015G25KT 9999 SCT025
    BECMG 0518/0520 24012KT
    BECMG 0608/0611 27015KT
    PROB30 TEMPO 0611/0614 7000 -SHRA FEW022TCU BKN030
    BECMG 0614/0616 30012KT=
ZCZC
FT051100 EHGG     GRONINGEN/EELDE   NLD   5 m.
TAF EHGG 051102Z 0512/0618 23018G30KT 9999 SCT025
    PROB40 TEMPO 0513/0517 7000 -SHRA SCT018TCU
    BECMG 0515/0517 26010KT
    BECMG 0518/0520 23008KT
    TEMPO 0603/0614 5000 SHRA SCT020CB BKN025
    BECMG 0605/0607 27015G25KT
    BECMG 0613/0615 30013KT=
ZCZC
FT051100 EHLE     LELYSTAD/LELYSTAD   NLD   -3 m.
TAF EHLE 051100Z 0512/0618 24024G36KT 9999 SCT018
    BECMG 0515/0518 23018G28KT SCT025
    BECMG 0521/0524 27016G26KT
    PROB30 TEMPO 0602/0615 6000 -SHRA SCT020CB BKN030
    BECMG 0609/0612 30015G25KT
    BECMG 0615/0618 31012KT=
ZCZC
FT051100 EHRD     ROTTERDAM/THE HAGUE AIRPORT   NLD   -5 m.
TAF EHRD 051058Z 0512/0618 24024G36KT 9999 SCT018
    BECMG 0515/0518 23018G28KT SCT025
    BECMG 0521/0524 27016G26KT
    PROB30 TEMPO 0602/0615 6000 -SHRA SCT020CB BKN030
    BECMG 0609/0612 30015G25KT
    BECMG 0615/0618 31012KT=
ZCZC
FT051100 EHEH     EINDHOVEN/EINDHOVEN   NLD   22 m.
TAF EHEH 051136Z 0512/0618 24017KT 9999 FEW012 BKN015 OVC022
    TEMPO 0512/0514 3500 -RADZ FEW008 SCT012 OVC015
    PROB40 TEMPO 0512/0518 24018G30KT
    BECMG 0514/0516 SCT020 BKN040
    BECMG 0518/0520 24012KT
    BECMG 0606/0608 27014G24KT
    TEMPO 0606/0618 SCT020CB BKN025=
Bron: KNMI website
Laatste update op 05-07-2020 om 15:10
ZCZC
SA051225 EHFS     VLISSINGEN AWS   NLD   8 m.
METAR EHFS 051225Z AUTO 25030KT 8000 SCT017/// BKN020/// BKN024///
18/15 Q1010=
ZCZC
SA051225 EHSG     BSA   NLD   43 m.
METAR EHSG 051225Z AUTO 22032KT //// // FEW008/// 17/15 Q1010 RE//=
ZCZC
SA051255 EHKD     DE KOOY/DE KOOY   NLD   1 m.
METAR EHKD 051255Z AUTO 23026KT 200V260 9999 FEW011 SCT045 OVC190
20/16 Q1007
BLU 23028KT 9999 FEW012 SCT040 TEMPO 24028G38KT=
ZCZC
SA051255 EHFD     F3-FB-1   NLD   50 m.
METAR EHFD 051255Z AUTO /////KT //// // FEW024/// OVC040/// 15/11
Q1001 RE//=
ZCZC
SA051255 EHAM     AMSTERDAM/SCHIPHOL   NLD   -3 m.
METAR EHAM 051255Z 24027KT 9999 BKN016 21/15 Q1009 BECMG SCT016=
ZCZC
SA051255 EHVL     VLIELAND   NLD   10 m.
METAR EHVL 051255Z AUTO 25024KT 9999 FEW011 SCT016 BKN025 18/15 Q1006
 WHT=
ZCZC
SA051255 EHJR     K13-A   NLD   37 m.
METAR EHJR 051255Z AUTO 27018KT //// // ///////// 16/11 Q1007 RE//
W///H20=
ZCZC
SA051255 EHLE     LELYSTAD/LELYSTAD   NLD   -3 m.
METAR EHLE 051255Z AUTO 24022KT 9999 SCT025 BKN031 BKN040 21/15 Q1008
NOSIG=
ZCZC
SA051255 EHLW     LEEUWARDEN/LEEUWARDEN   NLD   1 m.
METAR EHLW 051255Z AUTO 25025G36KT 9999 SCT017 SCT022 BKN027 19/15
Q1006 WHT=
ZCZC
SA051255 EHDL     ARNHEM/DEELEN   NLD   48 m.
METAR EHDL 051255Z AUTO 24013KT 160V300 9999 FEW007 SCT010 BKN015
18/18 Q1010 REDZ GRN=
ZCZC
SA051255 EHGG     GRONINGEN/EELDE   NLD   5 m.
METAR EHGG 051255Z AUTO 24018KT 210V270 9999 SCT027 BKN031 BKN049
21/15 Q1006 NOSIG=
ZCZC
SA051255 EHSC     LICHTEILAND GOEREE   NLD   22 m.
METAR EHSC 051255Z AUTO 24036KT 9999 ///////// 17/15 Q1009 W18/H27=
ZCZC
SA051255 EHSA     EURO PLATFORM   NLD   19 m.
METAR EHSA 051255Z AUTO /////KT 9999 ///////// 17/15 Q1010 W15/H27=
ZCZC
SA051255 EHWO     WOENSDRECHT/WOENSDRECHT   NLD   19 m.
METAR EHWO 051255Z AUTO 25016KT 210V280 9999 SCT021 BKN024 BKN029
20/16 Q1011 WHT=
ZCZC
SA051255 EHRD     ROTTERDAM/THE HAGUE AIRPORT   NLD   -5 m.
METAR EHRD 051255Z AUTO 24023KT 210V270 9999 SCT020 BKN024 BKN027
20/15 Q1010 NOSIG=
ZCZC
SA051255 EHGR     GILZE-RIJEN/GILZE-RIJEN   NLD   14 m.
METAR EHGR 051255Z AUTO 24013KT 200V280 9999 SCT019 BKN022 BKN031
20/16 Q1011 WHT=
ZCZC
SA051255 EHEH     EINDHOVEN/EINDHOVEN   NLD   22 m.
METAR EHEH 051255Z AUTO 24020G32KT 200V290 9999 BKN020 BKN030 BKN037
21/16 Q1011
WHT 24017G27KT 9999 BKN016 TEMPO 24020G32KT 3000 -DZRA SCT007 OVC010=
ZCZC
SA051255 EHVK     VOLKEL/VOLKEL   NLD   21 m.
METAR EHVK 051255Z AUTO 24018G28KT 200V280 9999 -DZ BKN016 BKN021
OVC026 20/17 Q1010 WHT=
ZCZC
SA051255 EHBK     MAASTRICHT/MAASTRICHT-AACHEN   NLD   114 m.
METAR EHBK 051255Z AUTO 24013KT 200V270 9999 FEW019 SCT028 OVC034
22/17 Q1012 NOSIG=
ZCZC
SA051255 EHFZ     F16-A   NLD   43 m.
METAR EHFZ 051255Z AUTO 25025KT 9999 NCD 16/10 Q1004=
ZCZC
SA051255 EHKV     K14-FA-1C   NLD   41 m.
METAR EHKV 051255Z AUTO 27021KT 9999 FEW047 16/11 Q1007=
ZCZC
SA051255 EHMG     L9-FF-1   NLD   44 m.
METAR EHMG 051255Z AUTO 26024KT 9999 FEW027 SCT047 16/11 Q1006=
ZCZC
SA051255 EHMA     AWG-1   NLD   40 m.
METAR EHMA 051255Z AUTO 28026KT 9999 -RA FEW018 SCT024 BKN029 18/13
Q1006 RERA REDZ=
ZCZC
SA051255 EHDV     D15-FA-1   NLD   42 m.
METAR EHDV 051255Z AUTO 26025KT 9999 NSC 15/10 Q1003=
ZCZC
SA051255 EHAK     A12-CPP   NLD   48 m.
METAR EHAK 051255Z AUTO 26034KT 9999 FEW023/// SCT030/// 14/10 Q1000=
ZCZC
SA051255 EHQE     HOORN-A   NLD   50 m.
METAR EHQE 051255Z AUTO 19029KT 9999 FEW001 17/16 Q1007=
ZCZC
SA051255 EHJA     J6-A   NLD   45 m.
METAR EHJA 051255Z AUTO 25027KT 9999 NSC 15/10 Q1005=
ZCZC
SA051255 EHPG     P11-B   NLD   41 m.
METAR EHPG 051255Z AUTO 22028KT 9999 NSC 17/15 Q1008 RE//=
ZCZC
SA051255 EHHW     BUITENGAATS/BG-OHVS2      42 m.
METAR EHHW 051255Z AUTO 28028KT 9999 FEW018/// SCT039/// 17/11 Q1006=